sensor_id;sensor_type;location;lat;lon;timestamp;P1;durP1;ratioP1;P2;durP2;ratioP2
42198;SDS011;27868;45.184;5.786;2022-09-01T00:00:12;3.92;;;2.40;;
42198;SDS011;27868;45.184;5.786;2022-09-01T00:02:59;7.43;;;2.30;;
42198;SDS011;27868;45.184;5.786;2022-09-01T00:05:43;7.82;;;2.33;;
42198;SDS011;27868;45.184;5.786;2022-09-01T00:08:29;4.32;;;2.47;;
42198;SDS011;27868;45.184;5.786;2022-09-01T00:11:14;4.88;;;2.30;;
42198;SDS011;27868;45.184;5.786;2022-09-01T00:13:59;5.82;;;2.28;;
42198;SDS011;27868;45.184;5.786;2022-09-01T00:16:45;5.47;;;2.28;;
42198;SDS011;27868;45.184;5.786;2022-09-01T00:19:30;2.78;;;2.17;;
42198;SDS011;27868;45.184;5.786;2022-09-01T00:22:16;8.30;;;2.42;;
42198;SDS011;27868;45.184;5.786;2022-09-01T00:25:01;3.58;;;2.13;;
42198;SDS011;27868;45.184;5.786;2022-09-01T00:27:46;3.45;;;2.47;;
42198;SDS011;27868;45.184;5.786;2022-09-01T00:30:32;3.92;;;2.20;;
42198;SDS011;27868;45.184;5.786;2022-09-01T00:33:16;5.63;;;2.80;;
42198;SDS011;27868;45.184;5.786;2022-09-01T00:36:00;3.17;;;2.05;;
42198;SDS011;27868;45.184;5.786;2022-09-01T00:38:46;5.80;;;2.20;;
42198;SDS011;27868;45.184;5.786;2022-09-01T00:41:31;7.10;;;2.30;;
42198;SDS011;27868;45.184;5.786;2022-09-01T00:44:19;3.95;;;2.60;;
42198;SDS011;27868;45.184;5.786;2022-09-01T00:47:07;4.00;;;2.47;;
42198;SDS011;27868;45.184;5.786;2022-09-01T00:49:51;5.30;;;2.60;;
42198;SDS011;27868;45.184;5.786;2022-09-01T00:52:38;5.90;;;2.40;;
42198;SDS011;27868;45.184;5.786;2022-09-01T00:55:29;3.95;;;2.28;;
42198;SDS011;27868;45.184;5.786;2022-09-01T00:58:15;9.25;;;2.50;;
42198;SDS011;27868;45.184;5.786;2022-09-01T01:01:01;5.63;;;2.33;;
42198;SDS011;27868;45.184;5.786;2022-09-01T01:03:46;6.82;;;2.60;;
42198;SDS011;27868;45.184;5.786;2022-09-01T01:06:31;5.35;;;2.90;;
42198;SDS011;27868;45.184;5.786;2022-09-01T01:09:16;4.85;;;2.40;;
42198;SDS011;27868;45.184;5.786;2022-09-01T01:12:03;5.13;;;2.55;;
42198;SDS011;27868;45.184;5.786;2022-09-01T01:14:49;7.43;;;2.92;;
42198;SDS011;27868;45.184;5.786;2022-09-01T01:17:34;3.28;;;2.45;;
42198;SDS011;27868;45.184;5.786;2022-09-01T01:20:19;3.65;;;2.30;;
42198;SDS011;27868;45.184;5.786;2022-09-01T01:23:38;15.85;;;3.17;;
42198;SDS011;27868;45.184;5.786;2022-09-01T01:26:28;4.00;;;2.30;;
42198;SDS011;27868;45.184;5.786;2022-09-01T01:29:12;5.35;;;2.53;;
42198;SDS011;27868;45.184;5.786;2022-09-01T01:31:58;2.60;;;2.30;;
42198;SDS011;27868;45.184;5.786;2022-09-01T01:34:45;5.47;;;2.47;;
42198;SDS011;27868;45.184;5.786;2022-09-01T01:37:32;3.22;;;2.35;;
42198;SDS011;27868;45.184;5.786;2022-09-01T01:40:19;6.47;;;2.50;;
42198;SDS011;27868;45.184;5.786;2022-09-01T01:43:05;5.47;;;2.60;;
42198;SDS011;27868;45.184;5.786;2022-09-01T01:45:52;3.22;;;2.40;;
42198;SDS011;27868;45.184;5.786;2022-09-01T01:48:41;2.83;;;2.22;;
42198;SDS011;27868;45.184;5.786;2022-09-01T01:51:26;7.07;;;2.80;;
42198;SDS011;27868;45.184;5.786;2022-09-01T01:54:14;5.60;;;2.20;;
42198;SDS011;27868;45.184;5.786;2022-09-01T01:57:02;4.13;;;2.40;;
42198;SDS011;27868;45.184;5.786;2022-09-01T01:59:48;5.15;;;2.63;;
42198;SDS011;27868;45.184;5.786;2022-09-01T02:02:32;4.43;;;2.63;;
42198;SDS011;27868;45.184;5.786;2022-09-01T02:05:21;5.93;;;2.70;;
42198;SDS011;27868;45.184;5.786;2022-09-01T02:08:09;3.85;;;2.47;;
42198;SDS011;27868;45.184;5.786;2022-09-01T02:10:54;5.68;;;2.67;;
42198;SDS011;27868;45.184;5.786;2022-09-01T02:13:40;5.03;;;2.75;;
42198;SDS011;27868;45.184;5.786;2022-09-01T02:16:26;5.07;;;2.75;;
42198;SDS011;27868;45.184;5.786;2022-09-01T02:19:12;5.60;;;2.78;;
42198;SDS011;27868;45.184;5.786;2022-09-01T02:21:58;6.70;;;2.67;;
42198;SDS011;27868;45.184;5.786;2022-09-01T02:24:43;5.93;;;2.63;;
42198;SDS011;27868;45.184;5.786;2022-09-01T02:27:36;4.80;;;2.65;;
42198;SDS011;27868;45.184;5.786;2022-09-01T02:30:22;3.92;;;2.65;;
42198;SDS011;27868;45.184;5.786;2022-09-01T02:33:11;4.82;;;2.65;;
42198;SDS011;27868;45.184;5.786;2022-09-01T02:36:03;4.40;;;2.28;;
42198;SDS011;27868;45.184;5.786;2022-09-01T02:38:50;3.83;;;2.40;;
42198;SDS011;27868;45.184;5.786;2022-09-01T02:41:36;3.63;;;2.15;;
42198;SDS011;27868;45.184;5.786;2022-09-01T02:44:21;5.28;;;2.72;;
42198;SDS011;27868;45.184;5.786;2022-09-01T02:47:06;8.35;;;2.55;;
42198;SDS011;27868;45.184;5.786;2022-09-01T02:49:52;6.55;;;2.60;;
42198;SDS011;27868;45.184;5.786;2022-09-01T02:52:37;3.72;;;2.45;;
42198;SDS011;27868;45.184;5.786;2022-09-01T02:55:23;6.22;;;2.80;;
42198;SDS011;27868;45.184;5.786;2022-09-01T02:58:08;3.53;;;2.60;;
42198;SDS011;27868;45.184;5.786;2022-09-01T03:00:59;6.25;;;2.65;;
42198;SDS011;27868;45.184;5.786;2022-09-01T03:03:44;4.70;;;2.33;;
42198;SDS011;27868;45.184;5.786;2022-09-01T03:06:29;3.47;;;2.50;;
42198;SDS011;27868;45.184;5.786;2022-09-01T03:09:17;5.45;;;2.70;;
42198;SDS011;27868;45.184;5.786;2022-09-01T03:12:02;3.95;;;2.60;;
42198;SDS011;27868;45.184;5.786;2022-09-01T03:14:47;4.30;;;2.50;;
42198;SDS011;27868;45.184;5.786;2022-09-01T03:17:32;7.85;;;3.03;;
42198;SDS011;27868;45.184;5.786;2022-09-01T03:20:18;5.85;;;2.35;;
42198;SDS011;27868;45.184;5.786;2022-09-01T03:23:04;6.18;;;2.75;;
42198;SDS011;27868;45.184;5.786;2022-09-01T03:25:51;3.78;;;2.60;;
42198;SDS011;27868;45.184;5.786;2022-09-01T03:28:36;3.67;;;2.60;;
42198;SDS011;27868;45.184;5.786;2022-09-01T03:31:21;4.53;;;2.40;;
42198;SDS011;27868;45.184;5.786;2022-09-01T03:34:10;3.78;;;2.55;;
42198;SDS011;27868;45.184;5.786;2022-09-01T03:36:55;3.45;;;2.50;;
42198;SDS011;27868;45.184;5.786;2022-09-01T03:39:40;5.82;;;2.33;;
42198;SDS011;27868;45.184;5.786;2022-09-01T03:42:25;3.00;;;2.58;;
42198;SDS011;27868;45.184;5.786;2022-09-01T03:45:12;3.70;;;2.60;;
42198;SDS011;27868;45.184;5.786;2022-09-01T03:47:58;4.32;;;2.63;;
42198;SDS011;27868;45.184;5.786;2022-09-01T03:50:44;5.32;;;2.70;;
42198;SDS011;27868;45.184;5.786;2022-09-01T03:53:32;2.75;;;2.40;;
42198;SDS011;27868;45.184;5.786;2022-09-01T03:56:24;3.58;;;2.80;;
42198;SDS011;27868;45.184;5.786;2022-09-01T03:59:11;4.90;;;3.00;;
42198;SDS011;27868;45.184;5.786;2022-09-01T04:02:00;5.22;;;2.55;;
42198;SDS011;27868;45.184;5.786;2022-09-01T04:04:46;4.85;;;3.03;;
42198;SDS011;27868;45.184;5.786;2022-09-01T04:07:30;10.90;;;2.95;;
42198;SDS011;27868;45.184;5.786;2022-09-01T04:10:15;4.78;;;2.50;;
42198;SDS011;27868;45.184;5.786;2022-09-01T04:13:01;3.85;;;2.63;;
42198;SDS011;27868;45.184;5.786;2022-09-01T04:15:48;4.30;;;2.60;;
42198;SDS011;27868;45.184;5.786;2022-09-01T04:18:33;4.60;;;2.90;;
42198;SDS011;27868;45.184;5.786;2022-09-01T04:21:18;3.03;;;2.53;;
42198;SDS011;27868;45.184;5.786;2022-09-01T04:24:03;6.55;;;2.85;;
42198;SDS011;27868;45.184;5.786;2022-09-01T04:26:49;5.03;;;3.03;;
42198;SDS011;27868;45.184;5.786;2022-09-01T04:29:35;3.38;;;2.60;;
42198;SDS011;27868;45.184;5.786;2022-09-01T04:32:20;5.18;;;2.60;;
42198;SDS011;27868;45.184;5.786;2022-09-01T04:35:05;3.97;;;2.55;;
42198;SDS011;27868;45.184;5.786;2022-09-01T04:37:50;5.22;;;2.80;;
42198;SDS011;27868;45.184;5.786;2022-09-01T04:40:36;7.10;;;3.13;;
42198;SDS011;27868;45.184;5.786;2022-09-01T04:43:23;6.32;;;2.80;;
42198;SDS011;27868;45.184;5.786;2022-09-01T04:46:07;4.38;;;2.90;;
42198;SDS011;27868;45.184;5.786;2022-09-01T04:48:54;5.97;;;2.83;;
42198;SDS011;27868;45.184;5.786;2022-09-01T04:51:41;5.45;;;2.78;;
42198;SDS011;27868;45.184;5.786;2022-09-01T04:54:27;3.50;;;2.67;;
42198;SDS011;27868;45.184;5.786;2022-09-01T04:57:12;4.97;;;3.08;;
42198;SDS011;27868;45.184;5.786;2022-09-01T04:59:57;4.10;;;2.75;;
42198;SDS011;27868;45.184;5.786;2022-09-01T05:02:42;5.05;;;3.13;;
42198;SDS011;27868;45.184;5.786;2022-09-01T05:05:34;4.18;;;3.33;;
42198;SDS011;27868;45.184;5.786;2022-09-01T05:08:26;8.98;;;3.00;;
42198;SDS011;27868;45.184;5.786;2022-09-01T05:11:12;5.85;;;3.55;;
42198;SDS011;27868;45.184;5.786;2022-09-01T05:14:00;8.75;;;3.10;;
42198;SDS011;27868;45.184;5.786;2022-09-01T05:16:48;3.90;;;3.15;;
42198;SDS011;27868;45.184;5.786;2022-09-01T05:19:33;7.53;;;2.90;;
42198;SDS011;27868;45.184;5.786;2022-09-01T05:22:20;4.85;;;2.92;;
42198;SDS011;27868;45.184;5.786;2022-09-01T05:25:07;5.60;;;2.65;;
42198;SDS011;27868;45.184;5.786;2022-09-01T05:27:56;6.47;;;2.95;;
42198;SDS011;27868;45.184;5.786;2022-09-01T05:30:40;9.88;;;3.17;;
42198;SDS011;27868;45.184;5.786;2022-09-01T05:33:26;7.28;;;3.03;;
42198;SDS011;27868;45.184;5.786;2022-09-01T05:36:12;5.53;;;3.72;;
42198;SDS011;27868;45.184;5.786;2022-09-01T05:38:59;6.57;;;3.10;;
42198;SDS011;27868;45.184;5.786;2022-09-01T05:41:45;7.55;;;3.00;;
42198;SDS011;27868;45.184;5.786;2022-09-01T05:44:33;7.57;;;3.78;;
42198;SDS011;27868;45.184;5.786;2022-09-01T05:47:19;5.93;;;3.20;;
42198;SDS011;27868;45.184;5.786;2022-09-01T05:50:04;6.70;;;3.35;;
42198;SDS011;27868;45.184;5.786;2022-09-01T05:52:52;8.80;;;3.38;;
42198;SDS011;27868;45.184;5.786;2022-09-01T05:55:36;6.07;;;3.40;;
42198;SDS011;27868;45.184;5.786;2022-09-01T05:58:21;5.68;;;2.90;;
42198;SDS011;27868;45.184;5.786;2022-09-01T06:01:09;6.45;;;2.92;;
42198;SDS011;27868;45.184;5.786;2022-09-01T06:04:05;4.45;;;3.30;;
42198;SDS011;27868;45.184;5.786;2022-09-01T06:06:51;5.32;;;3.25;;
42198;SDS011;27868;45.184;5.786;2022-09-01T06:09:47;5.15;;;3.38;;
42198;SDS011;27868;45.184;5.786;2022-09-01T06:12:33;5.68;;;3.50;;
42198;SDS011;27868;45.184;5.786;2022-09-01T06:15:17;5.22;;;3.30;;
42198;SDS011;27868;45.184;5.786;2022-09-01T06:18:05;6.95;;;3.55;;
42198;SDS011;27868;45.184;5.786;2022-09-01T06:20:51;4.90;;;3.30;;
42198;SDS011;27868;45.184;5.786;2022-09-01T06:23:35;7.93;;;3.90;;
42198;SDS011;27868;45.184;5.786;2022-09-01T06:26:22;6.38;;;3.17;;
42198;SDS011;27868;45.184;5.786;2022-09-01T06:29:11;9.38;;;3.65;;
42198;SDS011;27868;45.184;5.786;2022-09-01T06:31:58;5.85;;;3.60;;
42198;SDS011;27868;45.184;5.786;2022-09-01T06:34:45;6.68;;;3.95;;
42198;SDS011;27868;45.184;5.786;2022-09-01T06:37:34;7.70;;;4.20;;
42198;SDS011;27868;45.184;5.786;2022-09-01T06:40:21;10.05;;;3.70;;
42198;SDS011;27868;45.184;5.786;2022-09-01T06:43:09;6.15;;;3.67;;
42198;SDS011;27868;45.184;5.786;2022-09-01T06:45:55;6.50;;;3.30;;
42198;SDS011;27868;45.184;5.786;2022-09-01T06:48:44;6.20;;;3.45;;
42198;SDS011;27868;45.184;5.786;2022-09-01T06:51:30;9.98;;;3.40;;
42198;SDS011;27868;45.184;5.786;2022-09-01T06:54:14;6.25;;;3.92;;
42198;SDS011;27868;45.184;5.786;2022-09-01T06:57:03;6.03;;;3.47;;
42198;SDS011;27868;45.184;5.786;2022-09-01T06:59:48;6.00;;;3.58;;
42198;SDS011;27868;45.184;5.786;2022-09-01T07:02:34;4.72;;;3.35;;
42198;SDS011;27868;45.184;5.786;2022-09-01T07:05:28;4.70;;;3.10;;
42198;SDS011;27868;45.184;5.786;2022-09-01T07:08:14;4.07;;;3.05;;
42198;SDS011;27868;45.184;5.786;2022-09-01T07:11:05;6.35;;;3.08;;
42198;SDS011;27868;45.184;5.786;2022-09-01T07:13:54;4.55;;;3.05;;
42198;SDS011;27868;45.184;5.786;2022-09-01T07:16:45;6.30;;;3.53;;
42198;SDS011;27868;45.184;5.786;2022-09-01T07:19:29;4.07;;;3.50;;
42198;SDS011;27868;45.184;5.786;2022-09-01T07:22:18;5.35;;;3.33;;
42198;SDS011;27868;45.184;5.786;2022-09-01T07:25:02;5.50;;;3.13;;
42198;SDS011;27868;45.184;5.786;2022-09-01T07:27:47;7.60;;;3.50;;
42198;SDS011;27868;45.184;5.786;2022-09-01T07:30:38;5.50;;;3.42;;
42198;SDS011;27868;45.184;5.786;2022-09-01T07:33:25;10.10;;;3.55;;
42198;SDS011;27868;45.184;5.786;2022-09-01T07:36:14;5.68;;;3.45;;
42198;SDS011;27868;45.184;5.786;2022-09-01T07:38:58;6.95;;;3.90;;
42198;SDS011;27868;45.184;5.786;2022-09-01T07:41:45;7.03;;;3.75;;
42198;SDS011;27868;45.184;5.786;2022-09-01T07:44:30;5.82;;;3.97;;
42198;SDS011;27868;45.184;5.786;2022-09-01T07:47:16;8.45;;;4.32;;
42198;SDS011;27868;45.184;5.786;2022-09-01T07:50:02;6.00;;;4.20;;
42198;SDS011;27868;45.184;5.786;2022-09-01T07:52:50;6.07;;;4.13;;
42198;SDS011;27868;45.184;5.786;2022-09-01T07:55:38;8.00;;;4.65;;
42198;SDS011;27868;45.184;5.786;2022-09-01T07:58:25;11.48;;;4.45;;
42198;SDS011;27868;45.184;5.786;2022-09-01T08:01:17;12.40;;;4.37;;
42198;SDS011;27868;45.184;5.786;2022-09-01T08:04:04;9.70;;;4.57;;
42198;SDS011;27868;45.184;5.786;2022-09-01T08:06:48;5.93;;;4.47;;
42198;SDS011;27868;45.184;5.786;2022-09-01T08:09:35;6.43;;;4.38;;
42198;SDS011;27868;45.184;5.786;2022-09-01T08:12:20;7.45;;;3.88;;
42198;SDS011;27868;45.184;5.786;2022-09-01T08:15:05;7.82;;;3.95;;
42198;SDS011;27868;45.184;5.786;2022-09-01T08:17:52;6.18;;;3.80;;
42198;SDS011;27868;45.184;5.786;2022-09-01T08:20:37;6.65;;;3.88;;
42198;SDS011;27868;45.184;5.786;2022-09-01T08:23:28;7.38;;;3.10;;
42198;SDS011;27868;45.184;5.786;2022-09-01T08:26:14;6.97;;;3.40;;
42198;SDS011;27868;45.184;5.786;2022-09-01T08:29:00;4.88;;;3.20;;
42198;SDS011;27868;45.184;5.786;2022-09-01T08:31:45;7.55;;;3.85;;
42198;SDS011;27868;45.184;5.786;2022-09-01T08:34:31;5.38;;;3.53;;
42198;SDS011;27868;45.184;5.786;2022-09-01T08:37:17;7.05;;;3.53;;
42198;SDS011;27868;45.184;5.786;2022-09-01T08:40:04;8.20;;;3.78;;
42198;SDS011;27868;45.184;5.786;2022-09-01T08:45:54;7.13;;;3.53;;
42198;SDS011;27868;45.184;5.786;2022-09-01T08:48:42;5.45;;;3.63;;
42198;SDS011;27868;45.184;5.786;2022-09-01T08:51:50;5.13;;;3.95;;
42198;SDS011;27868;45.184;5.786;2022-09-01T08:54:56;9.18;;;3.90;;
42198;SDS011;27868;45.184;5.786;2022-09-01T08:58:01;8.50;;;4.60;;
42198;SDS011;27868;45.184;5.786;2022-09-01T09:00:53;4.97;;;3.70;;
42198;SDS011;27868;45.184;5.786;2022-09-01T09:03:56;5.57;;;3.47;;
42198;SDS011;27868;45.184;5.786;2022-09-01T09:07:00;6.20;;;3.97;;
42198;SDS011;27868;45.184;5.786;2022-09-01T09:09:52;8.88;;;3.60;;
42198;SDS011;27868;45.184;5.786;2022-09-01T09:15:45;7.57;;;3.90;;
42198;SDS011;27868;45.184;5.786;2022-09-01T09:19:14;4.88;;;3.70;;
42198;SDS011;27868;45.184;5.786;2022-09-01T09:21:45;4.40;;;3.45;;
42198;SDS011;27868;45.184;5.786;2022-09-01T09:27:40;3.85;;;3.08;;
42198;SDS011;27868;45.184;5.786;2022-09-01T09:30:27;5.00;;;3.55;;
42198;SDS011;27868;45.184;5.786;2022-09-01T09:36:21;6.82;;;3.85;;
42198;SDS011;27868;45.184;5.786;2022-09-01T09:39:16;11.50;;;3.97;;
42198;SDS011;27868;45.184;5.786;2022-09-01T09:42:04;8.45;;;4.43;;
42198;SDS011;27868;45.184;5.786;2022-09-01T09:44:52;7.47;;;4.00;;
42198;SDS011;27868;45.184;5.786;2022-09-01T09:47:40;5.68;;;3.25;;
42198;SDS011;27868;45.184;5.786;2022-09-01T09:50:28;3.70;;;2.88;;
42198;SDS011;27868;45.184;5.786;2022-09-01T09:56:07;6.90;;;3.50;;
42198;SDS011;27868;45.184;5.786;2022-09-01T09:59:01;9.57;;;3.38;;
42198;SDS011;27868;45.184;5.786;2022-09-01T10:11:11;4.40;;;3.42;;
42198;SDS011;27868;45.184;5.786;2022-09-01T10:14:21;6.13;;;4.10;;
42198;SDS011;27868;45.184;5.786;2022-09-01T10:20:19;4.63;;;3.47;;
42198;SDS011;27868;45.184;5.786;2022-09-01T10:23:07;5.15;;;3.90;;
42198;SDS011;27868;45.184;5.786;2022-09-01T10:25:54;5.50;;;3.55;;
42198;SDS011;27868;45.184;5.786;2022-09-01T10:28:53;6.75;;;3.58;;
42198;SDS011;27868;45.184;5.786;2022-09-01T10:31:46;6.28;;;4.03;;
42198;SDS011;27868;45.184;5.786;2022-09-01T10:34:31;5.18;;;3.30;;
42198;SDS011;27868;45.184;5.786;2022-09-01T10:37:19;5.07;;;2.90;;
42198;SDS011;27868;45.184;5.786;2022-09-01T10:49:03;5.68;;;3.78;;
42198;SDS011;27868;45.184;5.786;2022-09-01T10:55:46;5.57;;;3.40;;
42198;SDS011;27868;45.184;5.786;2022-09-01T11:13:10;4.80;;;3.15;;
42198;SDS011;27868;45.184;5.786;2022-09-01T11:19:15;7.05;;;3.63;;
42198;SDS011;27868;45.184;5.786;2022-09-01T11:22:30;3.92;;;2.92;;
42198;SDS011;27868;45.184;5.786;2022-09-01T11:31:30;5.10;;;3.15;;
42198;SDS011;27868;45.184;5.786;2022-09-01T11:34:21;4.28;;;2.97;;
42198;SDS011;27868;45.184;5.786;2022-09-01T11:37:11;6.30;;;3.55;;
42198;SDS011;27868;45.184;5.786;2022-09-01T11:40:00;6.15;;;3.67;;
42198;SDS011;27868;45.184;5.786;2022-09-01T11:42:50;4.85;;;3.75;;
42198;SDS011;27868;45.184;5.786;2022-09-01T11:45:40;4.38;;;2.92;;
42198;SDS011;27868;45.184;5.786;2022-09-01T11:48:46;8.95;;;3.05;;
42198;SDS011;27868;45.184;5.786;2022-09-01T11:51:37;3.70;;;3.03;;
42198;SDS011;27868;45.184;5.786;2022-09-01T11:54:36;4.40;;;3.40;;
42198;SDS011;27868;45.184;5.786;2022-09-01T12:00:24;3.92;;;2.85;;
42198;SDS011;27868;45.184;5.786;2022-09-01T12:03:19;4.55;;;2.95;;
42198;SDS011;27868;45.184;5.786;2022-09-01T12:06:08;5.57;;;3.03;;
42198;SDS011;27868;45.184;5.786;2022-09-01T12:08:56;4.20;;;3.28;;
42198;SDS011;27868;45.184;5.786;2022-09-01T12:11:43;4.32;;;3.20;;
42198;SDS011;27868;45.184;5.786;2022-09-01T12:14:28;3.95;;;2.72;;
42198;SDS011;27868;45.184;5.786;2022-09-01T12:17:18;3.65;;;3.05;;
42198;SDS011;27868;45.184;5.786;2022-09-01T12:26:16;3.90;;;3.30;;
42198;SDS011;27868;45.184;5.786;2022-09-01T12:29:04;4.32;;;2.80;;
42198;SDS011;27868;45.184;5.786;2022-09-01T12:31:50;3.90;;;2.80;;
42198;SDS011;27868;45.184;5.786;2022-09-01T12:37:29;7.88;;;3.10;;
42198;SDS011;27868;45.184;5.786;2022-09-01T12:40:26;4.65;;;3.17;;
42198;SDS011;27868;45.184;5.786;2022-09-01T12:43:26;3.65;;;2.80;;
42198;SDS011;27868;45.184;5.786;2022-09-01T12:49:36;6.35;;;3.13;;
42198;SDS011;27868;45.184;5.786;2022-09-01T12:52:29;3.90;;;2.97;;
42198;SDS011;27868;45.184;5.786;2022-09-01T12:55:17;4.03;;;2.92;;
42198;SDS011;27868;45.184;5.786;2022-09-01T12:58:08;4.25;;;2.88;;
42198;SDS011;27868;45.184;5.786;2022-09-01T13:00:54;5.18;;;2.63;;
42198;SDS011;27868;45.184;5.786;2022-09-01T13:03:41;5.82;;;2.75;;
42198;SDS011;27868;45.184;5.786;2022-09-01T13:06:26;5.25;;;3.10;;
42198;SDS011;27868;45.184;5.786;2022-09-01T13:09:10;4.63;;;2.90;;
42198;SDS011;27868;45.184;5.786;2022-09-01T13:15:00;4.63;;;3.08;;
42198;SDS011;27868;45.184;5.786;2022-09-01T13:17:45;5.20;;;3.05;;
42198;SDS011;27868;45.184;5.786;2022-09-01T13:20:30;3.65;;;2.80;;
42198;SDS011;27868;45.184;5.786;2022-09-01T13:23:15;4.15;;;2.90;;
42198;SDS011;27868;45.184;5.786;2022-09-01T13:26:01;2.72;;;2.40;;
42198;SDS011;27868;45.184;5.786;2022-09-01T13:28:46;6.43;;;2.40;;
42198;SDS011;27868;45.184;5.786;2022-09-01T13:31:31;3.50;;;2.60;;
42198;SDS011;27868;45.184;5.786;2022-09-01T13:34:16;5.60;;;2.70;;
42198;SDS011;27868;45.184;5.786;2022-09-01T13:37:00;6.53;;;3.00;;
42198;SDS011;27868;45.184;5.786;2022-09-01T13:39:45;5.18;;;2.65;;
42198;SDS011;27868;45.184;5.786;2022-09-01T13:42:30;6.35;;;2.78;;
42198;SDS011;27868;45.184;5.786;2022-09-01T13:45:15;4.97;;;2.50;;
42198;SDS011;27868;45.184;5.786;2022-09-01T13:48:02;3.63;;;2.80;;
42198;SDS011;27868;45.184;5.786;2022-09-01T13:50:47;3.53;;;2.75;;
42198;SDS011;27868;45.184;5.786;2022-09-01T13:53:32;3.35;;;2.75;;
42198;SDS011;27868;45.184;5.786;2022-09-01T13:56:17;5.32;;;3.15;;
42198;SDS011;27868;45.184;5.786;2022-09-01T13:59:01;3.80;;;2.92;;
42198;SDS011;27868;45.184;5.786;2022-09-01T14:01:46;3.42;;;2.80;;
42198;SDS011;27868;45.184;5.786;2022-09-01T14:04:31;5.55;;;3.00;;
42198;SDS011;27868;45.184;5.786;2022-09-01T14:07:16;2.85;;;2.45;;
42198;SDS011;27868;45.184;5.786;2022-09-01T14:10:02;3.13;;;2.75;;
42198;SDS011;27868;45.184;5.786;2022-09-01T14:12:47;4.50;;;2.70;;
42198;SDS011;27868;45.184;5.786;2022-09-01T14:15:33;7.13;;;3.00;;
42198;SDS011;27868;45.184;5.786;2022-09-01T14:18:19;6.97;;;2.80;;
42198;SDS011;27868;45.184;5.786;2022-09-01T14:21:04;4.30;;;3.03;;
42198;SDS011;27868;45.184;5.786;2022-09-01T14:23:54;8.30;;;2.90;;
42198;SDS011;27868;45.184;5.786;2022-09-01T14:26:39;4.07;;;2.75;;
42198;SDS011;27868;45.184;5.786;2022-09-01T14:29:25;4.78;;;2.30;;
42198;SDS011;27868;45.184;5.786;2022-09-01T14:32:10;4.50;;;2.40;;
42198;SDS011;27868;45.184;5.786;2022-09-01T14:34:57;4.72;;;2.30;;
42198;SDS011;27868;45.184;5.786;2022-09-01T14:37:42;3.38;;;2.30;;
42198;SDS011;27868;45.184;5.786;2022-09-01T14:40:28;4.00;;;2.20;;
42198;SDS011;27868;45.184;5.786;2022-09-01T14:43:13;3.38;;;2.40;;
42198;SDS011;27868;45.184;5.786;2022-09-01T14:46:04;4.70;;;2.17;;
42198;SDS011;27868;45.184;5.786;2022-09-01T14:48:52;2.40;;;2.08;;
42198;SDS011;27868;45.184;5.786;2022-09-01T14:51:36;2.88;;;2.00;;
42198;SDS011;27868;45.184;5.786;2022-09-01T14:54:21;2.85;;;2.03;;
42198;SDS011;27868;45.184;5.786;2022-09-01T14:57:06;6.05;;;2.08;;
42198;SDS011;27868;45.184;5.786;2022-09-01T14:59:51;3.55;;;2.05;;
42198;SDS011;27868;45.184;5.786;2022-09-01T15:02:36;2.75;;;2.15;;
42198;SDS011;27868;45.184;5.786;2022-09-01T15:05:22;4.63;;;2.22;;
42198;SDS011;27868;45.184;5.786;2022-09-01T15:08:08;8.60;;;2.38;;
42198;SDS011;27868;45.184;5.786;2022-09-01T15:10:53;3.53;;;2.03;;
42198;SDS011;27868;45.184;5.786;2022-09-01T15:13:38;4.20;;;2.00;;
42198;SDS011;27868;45.184;5.786;2022-09-01T15:16:24;3.50;;;2.08;;
42198;SDS011;27868;45.184;5.786;2022-09-01T15:19:11;3.00;;;2.10;;
42198;SDS011;27868;45.184;5.786;2022-09-01T15:21:57;3.83;;;2.00;;
42198;SDS011;27868;45.184;5.786;2022-09-01T15:24:41;2.88;;;2.10;;
42198;SDS011;27868;45.184;5.786;2022-09-01T15:27:26;2.47;;;2.13;;
42198;SDS011;27868;45.184;5.786;2022-09-01T15:30:11;2.42;;;2.22;;
42198;SDS011;27868;45.184;5.786;2022-09-01T15:32:59;3.47;;;2.00;;
42198;SDS011;27868;45.184;5.786;2022-09-01T15:35:45;4.18;;;2.00;;
42198;SDS011;27868;45.184;5.786;2022-09-01T15:38:30;3.70;;;1.90;;
42198;SDS011;27868;45.184;5.786;2022-09-01T15:41:21;3.65;;;1.88;;
42198;SDS011;27868;45.184;5.786;2022-09-01T15:44:10;2.38;;;1.80;;
42198;SDS011;27868;45.184;5.786;2022-09-01T15:46:55;2.53;;;1.90;;
42198;SDS011;27868;45.184;5.786;2022-09-01T15:49:40;3.30;;;1.73;;
42198;SDS011;27868;45.184;5.786;2022-09-01T15:52:25;2.22;;;1.75;;
42198;SDS011;27868;45.184;5.786;2022-09-01T15:55:11;4.25;;;2.10;;
42198;SDS011;27868;45.184;5.786;2022-09-01T15:57:56;4.70;;;1.90;;
42198;SDS011;27868;45.184;5.786;2022-09-01T16:00:42;5.15;;;2.33;;
42198;SDS011;27868;45.184;5.786;2022-09-01T16:03:27;7.72;;;2.10;;
42198;SDS011;27868;45.184;5.786;2022-09-01T16:06:14;2.90;;;2.00;;
42198;SDS011;27868;45.184;5.786;2022-09-01T16:08:59;2.58;;;1.90;;
42198;SDS011;27868;45.184;5.786;2022-09-01T16:11:44;1.88;;;1.65;;
42198;SDS011;27868;45.184;5.786;2022-09-01T16:14:28;2.50;;;1.73;;
42198;SDS011;27868;45.184;5.786;2022-09-01T16:17:58;8.85;;;2.00;;
42198;SDS011;27868;45.184;5.786;2022-09-01T16:20:33;2.13;;;1.77;;
42198;SDS011;27868;45.184;5.786;2022-09-01T16:23:22;4.35;;;1.98;;
42198;SDS011;27868;45.184;5.786;2022-09-01T16:26:12;3.97;;;1.70;;
42198;SDS011;27868;45.184;5.786;2022-09-01T16:28:58;2.97;;;1.95;;
42198;SDS011;27868;45.184;5.786;2022-09-01T16:31:47;2.67;;;1.70;;
42198;SDS011;27868;45.184;5.786;2022-09-01T16:34:36;5.45;;;2.20;;
42198;SDS011;27868;45.184;5.786;2022-09-01T16:40:57;3.83;;;1.85;;
42198;SDS011;27868;45.184;5.786;2022-09-01T16:56:27;5.93;;;2.28;;
42198;SDS011;27868;45.184;5.786;2022-09-01T17:05:36;3.65;;;1.92;;
42198;SDS011;27868;45.184;5.786;2022-09-01T17:08:30;4.45;;;1.98;;
42198;SDS011;27868;45.184;5.786;2022-09-01T17:11:26;2.30;;;1.60;;
42198;SDS011;27868;45.184;5.786;2022-09-01T17:14:32;3.67;;;1.90;;
42198;SDS011;27868;45.184;5.786;2022-09-01T17:17:41;4.57;;;1.98;;
42198;SDS011;27868;45.184;5.786;2022-09-01T17:20:39;7.47;;;1.90;;
42198;SDS011;27868;45.184;5.786;2022-09-01T17:23:26;2.00;;;1.80;;
42198;SDS011;27868;45.184;5.786;2022-09-01T17:26:20;3.65;;;2.08;;
42198;SDS011;27868;45.184;5.786;2022-09-01T17:29:12;3.70;;;2.05;;
42198;SDS011;27868;45.184;5.786;2022-09-01T17:41:18;3.63;;;1.98;;
42198;SDS011;27868;45.184;5.786;2022-09-01T17:53:57;3.38;;;2.00;;
42198;SDS011;27868;45.184;5.786;2022-09-01T17:57:06;4.68;;;1.80;;
42198;SDS011;27868;45.184;5.786;2022-09-01T18:00:32;4.95;;;2.03;;
42198;SDS011;27868;45.184;5.786;2022-09-01T18:03:36;3.53;;;1.95;;
42198;SDS011;27868;45.184;5.786;2022-09-01T18:09:44;3.58;;;1.80;;
42198;SDS011;27868;45.184;5.786;2022-09-01T18:12:36;3.85;;;1.90;;
42198;SDS011;27868;45.184;5.786;2022-09-01T18:15:23;5.13;;;2.00;;
42198;SDS011;27868;45.184;5.786;2022-09-01T18:18:12;5.80;;;2.22;;
42198;SDS011;27868;45.184;5.786;2022-09-01T18:24:13;2.78;;;1.70;;
42198;SDS011;27868;45.184;5.786;2022-09-01T18:27:18;5.18;;;2.67;;
42198;SDS011;27868;45.184;5.786;2022-09-01T18:30:03;3.15;;;1.75;;
42198;SDS011;27868;45.184;5.786;2022-09-01T18:32:52;4.45;;;1.77;;
42198;SDS011;27868;45.184;5.786;2022-09-01T18:36:35;4.47;;;1.90;;
42198;SDS011;27868;45.184;5.786;2022-09-01T18:42:21;2.22;;;1.77;;
42198;SDS011;27868;45.184;5.786;2022-09-01T18:48:38;4.18;;;1.92;;
42198;SDS011;27868;45.184;5.786;2022-09-01T18:57:40;3.15;;;1.90;;
42198;SDS011;27868;45.184;5.786;2022-09-01T19:00:29;4.80;;;2.22;;
42198;SDS011;27868;45.184;5.786;2022-09-01T19:03:27;3.88;;;2.13;;
42198;SDS011;27868;45.184;5.786;2022-09-01T19:09:13;4.68;;;1.70;;
42198;SDS011;27868;45.184;5.786;2022-09-01T19:26:17;4.00;;;2.00;;
42198;SDS011;27868;45.184;5.786;2022-09-01T19:29:06;2.60;;;1.75;;
42198;SDS011;27868;45.184;5.786;2022-09-01T19:32:01;5.25;;;1.90;;
42198;SDS011;27868;45.184;5.786;2022-09-01T19:35:14;4.38;;;2.08;;